This demonstration page uses our WeatherBlox Daily Observations layout. Learn more.

38.89511, -77.03637

Hourly Observations for January 19, 2015

Temp ( °F °C ) Dew Point ( °F °C ) Humidity (%) Winds ( mph kmh ) Pressure ( in mb ) Visibility ( mi km ) Precip ( " mm )
12:52 am 00:52 Mostly Clear 43 6 30 -1 61 61 Calm 29.88 1012 10 16.09344 0 0
1:52 am 01:52 Mostly Clear 39 4 28 -2 65 65 WSW 3 6 29.91 1013 10 16.09344 0 0
2:52 am 02:52 Cloudy 41 5 28 -2 61 61 W 6 9 29.91 1013 10 16.09344 0 0
3:52 am 03:52 Cloudy 37 3 30 -1 75 75 Calm 29.91 1013 10 16.09344 0 0
4:52 am 04:52 Cloudy 37 3 30 -1 75 75 Calm 29.94 1014 10 16.09344 0 0
5:52 am 05:52 Cloudy 43 6 27 -3 53 53 SW 6 9 29.94 1014 10 16.09344 0 0
6:52 am 06:52 Cloudy 43 6 27 -3 53 53 W 12 19 29.97 1015 10 16.09344 0 0
7:52 am 07:52 Cloudy 45 7 27 -3 49 49 WNW 13 20 30 1016 10 16.09344 0 0
8:52 am 08:52 Cloudy 45 7 25 -4 46 46 WNW 10 17 30 1016 10 16.09344 0 0
9:52 am 09:52 Cloudy 45 7 25 -4 46 46 WNW 6 9 30 1016 10 16.09344 0 0
10:52 am 10:52 Cloudy 45 7 25 -4 46 46 NW 13 20 30.03 1017 10 16.09344 0 0
11:52 am 11:52 Cloudy 45 7 25 -4 46 46 NW 10 17 30 1016 10 16.09344 0 0
12:52 pm 12:52 Mostly Cloudy 48 9 27 -3 43 43 W 12 19 30 1016 10 16.09344 0 0
1:52 pm 13:52 Cloudy 48 9 25 -4 40 40 WNW 10 17 29.97 1015 10 16.09344 0 0
2:52 pm 14:52 Mostly Cloudy 48 9 23 -5 37 37 N 6 9 29.97 1015 10 16.09344 0 0
3:52 pm 15:52 Mostly Sunny 48 9 23 -5 37 37 NW 10 17 29.94 1014 10 16.09344 0 0
4:52 pm 16:52 Mostly Sunny 48 9 21 -6 34 34 WNW 3 6 29.94 1014 10 16.09344 0 0
5:52 pm 17:52 Mostly Clear 43 6 23 -5 46 46 N 6 9 29.97 1015 10 16.09344 0 0
6:52 pm 18:52 Mostly Clear 43 6 23 -5 46 46 N 6 9 29.97 1015 10 16.09344 0 0
7:52 pm 19:52 Clear 39 4 25 -4 56 56 SSE 5 7 29.97 1015 10 16.09344 0 0
8:52 pm 20:52 Partly Cloudy 37 3 27 -3 65 65 SSE 3 6 29.97 1015 10 16.09344 0 0
9:52 pm 21:52 Mostly Cloudy 37 3 27 -3 65 65 Calm 30 1016 10 16.09344 0 0
10:52 pm 22:52 Mostly Cloudy 34 1 27 -3 75 75 SSW 6 9 30 1016 10 16.09344 0 0
11:52 pm 23:52 Mostly Cloudy 36 2 27 -3 70 70 SSW 5 7 29.97 1015 10 16.09344 0 0

Powered by AerisWeather